sensor_id;sensor_type;location;lat;lon;timestamp;temperature;humidity
51825;DHT22;37879;52.986;6.282;2023-11-21T00:00:19;9.30;99.90
51825;DHT22;37879;52.986;6.282;2023-11-21T00:02:45;9.30;99.90
51825;DHT22;37879;52.986;6.282;2023-11-21T00:05:13;9.30;99.90
51825;DHT22;37879;52.986;6.282;2023-11-21T00:07:42;9.80;99.90
51825;DHT22;37879;52.986;6.282;2023-11-21T00:10:09;9.20;99.90
51825;DHT22;37879;52.986;6.282;2023-11-21T00:12:36;9.20;99.90
51825;DHT22;37879;52.986;6.282;2023-11-21T00:15:02;9.20;99.90
51825;DHT22;37879;52.986;6.282;2023-11-21T00:17:28;9.20;99.90
51825;DHT22;37879;52.986;6.282;2023-11-21T00:19:53;9.20;99.90
51825;DHT22;37879;52.986;6.282;2023-11-21T00:22:20;9.20;99.90
51825;DHT22;37879;52.986;6.282;2023-11-21T00:24:46;9.20;99.90
51825;DHT22;37879;52.986;6.282;2023-11-21T00:27:12;9.20;99.90
51825;DHT22;37879;52.986;6.282;2023-11-21T00:29:38;9.20;99.90
51825;DHT22;37879;52.986;6.282;2023-11-21T00:32:05;9.30;99.90
51825;DHT22;37879;52.986;6.282;2023-11-21T00:34:31;9.30;99.90
51825;DHT22;37879;52.986;6.282;2023-11-21T00:36:57;9.50;99.90
51825;DHT22;37879;52.986;6.282;2023-11-21T00:39:23;9.30;99.90
51825;DHT22;37879;52.986;6.282;2023-11-21T00:41:49;9.30;99.90
51825;DHT22;37879;52.986;6.282;2023-11-21T00:44:15;9.90;99.90
51825;DHT22;37879;52.986;6.282;2023-11-21T00:46:41;9.30;99.90
51825;DHT22;37879;52.986;6.282;2023-11-21T00:49:07;9.30;99.90
51825;DHT22;37879;52.986;6.282;2023-11-21T00:51:33;9.30;99.90
51825;DHT22;37879;52.986;6.282;2023-11-21T00:53:59;9.40;99.90
51825;DHT22;37879;52.986;6.282;2023-11-21T00:56:25;9.40;99.90
51825;DHT22;37879;52.986;6.282;2023-11-21T00:58:51;9.40;99.90
51825;DHT22;37879;52.986;6.282;2023-11-21T01:01:18;9.40;99.90
51825;DHT22;37879;52.986;6.282;2023-11-21T01:03:46;9.40;99.90
51825;DHT22;37879;52.986;6.282;2023-11-21T01:06:12;9.40;99.90
51825;DHT22;37879;52.986;6.282;2023-11-21T01:08:37;9.40;99.90
51825;DHT22;37879;52.986;6.282;2023-11-21T01:11:04;9.40;99.90
51825;DHT22;37879;52.986;6.282;2023-11-21T01:13:30;9.40;99.90
51825;DHT22;37879;52.986;6.282;2023-11-21T01:15:56;9.40;99.90
51825;DHT22;37879;52.986;6.282;2023-11-21T01:18:22;9.40;99.90
51825;DHT22;37879;52.986;6.282;2023-11-21T01:20:47;9.40;99.90
51825;DHT22;37879;52.986;6.282;2023-11-21T01:23:13;9.40;99.90
51825;DHT22;37879;52.986;6.282;2023-11-21T01:25:39;10.10;99.90
51825;DHT22;37879;52.986;6.282;2023-11-21T01:28:05;9.40;99.90
51825;DHT22;37879;52.986;6.282;2023-11-21T01:30:31;9.40;99.90
51825;DHT22;37879;52.986;6.282;2023-11-21T01:32:58;9.30;99.90
51825;DHT22;37879;52.986;6.282;2023-11-21T01:35:24;9.40;99.90
51825;DHT22;37879;52.986;6.282;2023-11-21T01:37:50;9.40;99.90
51825;DHT22;37879;52.986;6.282;2023-11-21T01:40:16;9.40;99.90
51825;DHT22;37879;52.986;6.282;2023-11-21T01:42:42;9.30;99.90
51825;DHT22;37879;52.986;6.282;2023-11-21T01:45:10;9.30;99.90
51825;DHT22;37879;52.986;6.282;2023-11-21T01:47:36;9.30;99.90
51825;DHT22;37879;52.986;6.282;2023-11-21T01:50:03;9.30;99.90
51825;DHT22;37879;52.986;6.282;2023-11-21T01:52:30;9.30;99.90
51825;DHT22;37879;52.986;6.282;2023-11-21T01:54:57;9.30;99.90
51825;DHT22;37879;52.986;6.282;2023-11-21T01:57:24;9.30;99.90
51825;DHT22;37879;52.986;6.282;2023-11-21T01:59:52;9.30;99.90
51825;DHT22;37879;52.986;6.282;2023-11-21T02:02:19;9.20;99.90
51825;DHT22;37879;52.986;6.282;2023-11-21T02:04:45;9.20;99.90
51825;DHT22;37879;52.986;6.282;2023-11-21T02:07:11;9.20;99.90
51825;DHT22;37879;52.986;6.282;2023-11-21T02:09:37;9.30;99.90
51825;DHT22;37879;52.986;6.282;2023-11-21T02:12:08;9.20;99.90
51825;DHT22;37879;52.986;6.282;2023-11-21T02:14:36;9.20;99.90
51825;DHT22;37879;52.986;6.282;2023-11-21T02:17:02;9.40;99.90
51825;DHT22;37879;52.986;6.282;2023-11-21T02:19:29;9.20;99.90
51825;DHT22;37879;52.986;6.282;2023-11-21T02:21:57;9.20;99.90
51825;DHT22;37879;52.986;6.282;2023-11-21T02:24:28;9.20;99.90
51825;DHT22;37879;52.986;6.282;2023-11-21T02:26:54;9.30;99.90
51825;DHT22;37879;52.986;6.282;2023-11-21T02:29:21;9.20;99.90
51825;DHT22;37879;52.986;6.282;2023-11-21T02:31:54;9.20;99.90
51825;DHT22;37879;52.986;6.282;2023-11-21T02:34:21;9.20;99.90
51825;DHT22;37879;52.986;6.282;2023-11-21T02:36:47;9.50;99.90
51825;DHT22;37879;52.986;6.282;2023-11-21T02:39:17;9.30;99.90
51825;DHT22;37879;52.986;6.282;2023-11-21T02:41:43;9.20;99.90
51825;DHT22;37879;52.986;6.282;2023-11-21T02:44:10;9.20;99.90
51825;DHT22;37879;52.986;6.282;2023-11-21T02:46:36;9.20;99.90
51825;DHT22;37879;52.986;6.282;2023-11-21T02:49:03;9.30;99.90
51825;DHT22;37879;52.986;6.282;2023-11-21T02:51:30;9.20;99.90
51825;DHT22;37879;52.986;6.282;2023-11-21T02:53:56;9.30;99.90
51825;DHT22;37879;52.986;6.282;2023-11-21T02:56:28;9.30;99.90
51825;DHT22;37879;52.986;6.282;2023-11-21T02:58:57;9.30;99.90
51825;DHT22;37879;52.986;6.282;2023-11-21T03:01:23;9.30;99.90
51825;DHT22;37879;52.986;6.282;2023-11-21T03:03:53;9.30;99.90
51825;DHT22;37879;52.986;6.282;2023-11-21T03:06:19;9.30;99.90
51825;DHT22;37879;52.986;6.282;2023-11-21T03:08:45;9.30;99.90
51825;DHT22;37879;52.986;6.282;2023-11-21T03:11:11;9.30;99.90
51825;DHT22;37879;52.986;6.282;2023-11-21T03:13:39;9.30;99.90
51825;DHT22;37879;52.986;6.282;2023-11-21T03:16:10;9.30;99.90
51825;DHT22;37879;52.986;6.282;2023-11-21T03:18:37;9.30;99.90
51825;DHT22;37879;52.986;6.282;2023-11-21T03:21:03;9.30;99.90
51825;DHT22;37879;52.986;6.282;2023-11-21T03:23:29;9.30;99.90
51825;DHT22;37879;52.986;6.282;2023-11-21T03:25:55;9.30;99.90
51825;DHT22;37879;52.986;6.282;2023-11-21T03:28:21;9.30;99.90
51825;DHT22;37879;52.986;6.282;2023-11-21T03:30:47;9.30;99.90
51825;DHT22;37879;52.986;6.282;2023-11-21T03:33:12;9.40;99.90
51825;DHT22;37879;52.986;6.282;2023-11-21T03:35:38;9.40;99.90
51825;DHT22;37879;52.986;6.282;2023-11-21T03:38:04;9.40;99.90
51825;DHT22;37879;52.986;6.282;2023-11-21T03:40:29;9.40;99.90
51825;DHT22;37879;52.986;6.282;2023-11-21T03:42:57;9.40;99.90
51825;DHT22;37879;52.986;6.282;2023-11-21T03:45:23;9.40;99.90
51825;DHT22;37879;52.986;6.282;2023-11-21T03:47:48;9.30;99.90
51825;DHT22;37879;52.986;6.282;2023-11-21T03:50:14;9.30;99.90
51825;DHT22;37879;52.986;6.282;2023-11-21T03:52:40;9.30;99.90
51825;DHT22;37879;52.986;6.282;2023-11-21T03:55:05;9.40;99.90
51825;DHT22;37879;52.986;6.282;2023-11-21T03:57:31;9.40;99.90
51825;DHT22;37879;52.986;6.282;2023-11-21T03:59:57;9.40;99.90
51825;DHT22;37879;52.986;6.282;2023-11-21T04:02:22;9.40;99.90
51825;DHT22;37879;52.986;6.282;2023-11-21T04:04:50;9.40;99.90
51825;DHT22;37879;52.986;6.282;2023-11-21T04:07:16;9.40;99.90
51825;DHT22;37879;52.986;6.282;2023-11-21T04:09:42;9.40;99.90
51825;DHT22;37879;52.986;6.282;2023-11-21T04:12:08;9.40;99.90
51825;DHT22;37879;52.986;6.282;2023-11-21T04:14:36;8.70;99.90
51825;DHT22;37879;52.986;6.282;2023-11-21T04:17:02;9.40;99.90
51825;DHT22;37879;52.986;6.282;2023-11-21T04:19:29;9.40;99.90
51825;DHT22;37879;52.986;6.282;2023-11-21T04:21:55;9.40;99.90
51825;DHT22;37879;52.986;6.282;2023-11-21T04:24:21;9.40;99.90
51825;DHT22;37879;52.986;6.282;2023-11-21T04:26:46;9.40;99.90
51825;DHT22;37879;52.986;6.282;2023-11-21T04:29:12;9.40;99.90
51825;DHT22;37879;52.986;6.282;2023-11-21T04:31:38;9.40;99.90
51825;DHT22;37879;52.986;6.282;2023-11-21T04:34:04;8.20;99.90
51825;DHT22;37879;52.986;6.282;2023-11-21T04:36:30;9.40;99.90
51825;DHT22;37879;52.986;6.282;2023-11-21T04:38:59;9.30;99.90
51825;DHT22;37879;52.986;6.282;2023-11-21T04:41:25;9.40;99.90
51825;DHT22;37879;52.986;6.282;2023-11-21T04:43:50;9.40;99.90
51825;DHT22;37879;52.986;6.282;2023-11-21T04:46:16;9.40;99.90
51825;DHT22;37879;52.986;6.282;2023-11-21T04:48:42;10.00;99.90
51825;DHT22;37879;52.986;6.282;2023-11-21T04:51:07;9.50;99.90
51825;DHT22;37879;52.986;6.282;2023-11-21T04:53:33;9.40;99.90
51825;DHT22;37879;52.986;6.282;2023-11-21T04:56:00;9.30;99.90
51825;DHT22;37879;52.986;6.282;2023-11-21T04:58:26;9.30;99.90
51825;DHT22;37879;52.986;6.282;2023-11-21T05:00:51;9.30;99.90
51825;DHT22;37879;52.986;6.282;2023-11-21T05:03:17;9.50;99.90
51825;DHT22;37879;52.986;6.282;2023-11-21T05:05:43;9.30;99.90
51825;DHT22;37879;52.986;6.282;2023-11-21T05:08:09;9.30;99.90
51825;DHT22;37879;52.986;6.282;2023-11-21T05:10:34;10.10;99.90
51825;DHT22;37879;52.986;6.282;2023-11-21T05:13:03;9.30;99.90
51825;DHT22;37879;52.986;6.282;2023-11-21T05:15:29;9.30;99.90
51825;DHT22;37879;52.986;6.282;2023-11-21T05:17:55;9.20;99.90
51825;DHT22;37879;52.986;6.282;2023-11-21T05:20:20;9.30;99.90
51825;DHT22;37879;52.986;6.282;2023-11-21T05:22:47;9.20;99.90
51825;DHT22;37879;52.986;6.282;2023-11-21T05:25:14;9.30;99.90
51825;DHT22;37879;52.986;6.282;2023-11-21T05:27:39;9.30;99.90
51825;DHT22;37879;52.986;6.282;2023-11-21T05:30:06;9.20;99.90
51825;DHT22;37879;52.986;6.282;2023-11-21T05:32:32;9.20;99.90
51825;DHT22;37879;52.986;6.282;2023-11-21T05:34:58;9.20;99.90
51825;DHT22;37879;52.986;6.282;2023-11-21T05:37:24;9.20;99.90
51825;DHT22;37879;52.986;6.282;2023-11-21T05:39:53;9.30;99.90
51825;DHT22;37879;52.986;6.282;2023-11-21T05:42:18;9.30;99.90
51825;DHT22;37879;52.986;6.282;2023-11-21T05:44:44;9.30;99.90
51825;DHT22;37879;52.986;6.282;2023-11-21T05:47:10;9.20;99.90
51825;DHT22;37879;52.986;6.282;2023-11-21T05:49:36;9.30;99.90
51825;DHT22;37879;52.986;6.282;2023-11-21T05:52:02;9.20;99.90
51825;DHT22;37879;52.986;6.282;2023-11-21T05:54:28;9.20;99.90
51825;DHT22;37879;52.986;6.282;2023-11-21T05:56:54;9.20;99.90
51825;DHT22;37879;52.986;6.282;2023-11-21T05:59:20;9.30;99.90
51825;DHT22;37879;52.986;6.282;2023-11-21T06:01:46;9.40;99.90
51825;DHT22;37879;52.986;6.282;2023-11-21T06:04:12;9.50;99.90
51825;DHT22;37879;52.986;6.282;2023-11-21T06:06:38;9.20;99.90
51825;DHT22;37879;52.986;6.282;2023-11-21T06:09:04;9.60;99.90
51825;DHT22;37879;52.986;6.282;2023-11-21T06:11:31;9.30;99.90
51825;DHT22;37879;52.986;6.282;2023-11-21T06:13:57;9.30;99.90
51825;DHT22;37879;52.986;6.282;2023-11-21T06:16:23;9.20;99.90
51825;DHT22;37879;52.986;6.282;2023-11-21T06:18:49;9.30;99.90
51825;DHT22;37879;52.986;6.282;2023-11-21T06:21:15;9.20;99.90
51825;DHT22;37879;52.986;6.282;2023-11-21T06:23:42;9.20;99.90
51825;DHT22;37879;52.986;6.282;2023-11-21T06:26:08;9.20;99.90
51825;DHT22;37879;52.986;6.282;2023-11-21T06:28:35;9.20;99.90
51825;DHT22;37879;52.986;6.282;2023-11-21T06:31:01;9.20;99.90
51825;DHT22;37879;52.986;6.282;2023-11-21T06:33:33;9.20;99.90
51825;DHT22;37879;52.986;6.282;2023-11-21T06:35:59;9.50;99.90
51825;DHT22;37879;52.986;6.282;2023-11-21T06:38:28;9.20;99.90
51825;DHT22;37879;52.986;6.282;2023-11-21T06:40:56;9.20;99.90
51825;DHT22;37879;52.986;6.282;2023-11-21T06:43:23;9.20;99.90
51825;DHT22;37879;52.986;6.282;2023-11-21T06:45:49;9.20;99.90
51825;DHT22;37879;52.986;6.282;2023-11-21T06:48:15;9.20;99.90
51825;DHT22;37879;52.986;6.282;2023-11-21T06:50:41;9.20;99.90
51825;DHT22;37879;52.986;6.282;2023-11-21T06:53:07;9.20;99.90
51825;DHT22;37879;52.986;6.282;2023-11-21T06:55:33;9.20;99.90
51825;DHT22;37879;52.986;6.282;2023-11-21T06:58:00;9.20;99.90
51825;DHT22;37879;52.986;6.282;2023-11-21T07:00:26;9.10;99.90
51825;DHT22;37879;52.986;6.282;2023-11-21T07:02:54;9.10;99.90
51825;DHT22;37879;52.986;6.282;2023-11-21T07:05:21;9.20;99.90
51825;DHT22;37879;52.986;6.282;2023-11-21T07:07:48;9.10;99.90
51825;DHT22;37879;52.986;6.282;2023-11-21T07:10:15;9.10;99.90
51825;DHT22;37879;52.986;6.282;2023-11-21T07:12:40;9.10;99.90
51825;DHT22;37879;52.986;6.282;2023-11-21T07:15:07;9.10;99.90
51825;DHT22;37879;52.986;6.282;2023-11-21T07:17:37;9.10;99.90
51825;DHT22;37879;52.986;6.282;2023-11-21T07:20:03;9.10;99.90
51825;DHT22;37879;52.986;6.282;2023-11-21T07:22:30;9.10;99.90
51825;DHT22;37879;52.986;6.282;2023-11-21T07:24:55;9.10;99.90
51825;DHT22;37879;52.986;6.282;2023-11-21T07:27:24;9.10;99.90
51825;DHT22;37879;52.986;6.282;2023-11-21T07:29:50;9.10;99.90
51825;DHT22;37879;52.986;6.282;2023-11-21T07:32:16;9.10;99.90
51825;DHT22;37879;52.986;6.282;2023-11-21T07:34:41;9.10;99.90
51825;DHT22;37879;52.986;6.282;2023-11-21T07:37:08;9.10;99.90
51825;DHT22;37879;52.986;6.282;2023-11-21T07:39:35;8.40;99.90
51825;DHT22;37879;52.986;6.282;2023-11-21T07:42:02;9.10;99.90
51825;DHT22;37879;52.986;6.282;2023-11-21T07:44:28;9.20;99.90
51825;DHT22;37879;52.986;6.282;2023-11-21T07:46:54;9.20;99.90
51825;DHT22;37879;52.986;6.282;2023-11-21T07:49:24;9.20;99.90
51825;DHT22;37879;52.986;6.282;2023-11-21T07:51:50;9.20;99.90
51825;DHT22;37879;52.986;6.282;2023-11-21T07:54:16;9.20;99.90
51825;DHT22;37879;52.986;6.282;2023-11-21T07:56:42;9.20;99.90
51825;DHT22;37879;52.986;6.282;2023-11-21T07:59:08;9.30;99.90
51825;DHT22;37879;52.986;6.282;2023-11-21T08:01:34;9.20;99.90
51825;DHT22;37879;52.986;6.282;2023-11-21T08:03:59;9.20;99.90
51825;DHT22;37879;52.986;6.282;2023-11-21T08:06:29;9.30;99.90
51825;DHT22;37879;52.986;6.282;2023-11-21T08:08:56;9.20;99.90
51825;DHT22;37879;52.986;6.282;2023-11-21T08:11:22;9.20;99.90
51825;DHT22;37879;52.986;6.282;2023-11-21T08:13:47;9.20;99.90
51825;DHT22;37879;52.986;6.282;2023-11-21T08:16:14;9.20;99.90
51825;DHT22;37879;52.986;6.282;2023-11-21T08:18:40;9.20;99.90
51825;DHT22;37879;52.986;6.282;2023-11-21T08:21:06;9.60;99.90
51825;DHT22;37879;52.986;6.282;2023-11-21T08:23:33;9.20;99.90
51825;DHT22;37879;52.986;6.282;2023-11-21T08:25:59;9.20;99.90
51825;DHT22;37879;52.986;6.282;2023-11-21T08:28:25;9.40;99.90
51825;DHT22;37879;52.986;6.282;2023-11-21T08:30:52;9.20;99.90
51825;DHT22;37879;52.986;6.282;2023-11-21T08:33:18;9.30;99.90
51825;DHT22;37879;52.986;6.282;2023-11-21T08:35:44;9.20;99.90
51825;DHT22;37879;52.986;6.282;2023-11-21T08:38:11;9.10;99.90
51825;DHT22;37879;52.986;6.282;2023-11-21T08:40:37;9.10;99.90
51825;DHT22;37879;52.986;6.282;2023-11-21T08:43:03;9.70;99.90
51825;DHT22;37879;52.986;6.282;2023-11-21T08:45:33;9.10;99.90
51825;DHT22;37879;52.986;6.282;2023-11-21T08:48:03;9.10;99.90
51825;DHT22;37879;52.986;6.282;2023-11-21T08:50:29;9.10;99.90
51825;DHT22;37879;52.986;6.282;2023-11-21T08:52:54;9.00;99.90
51825;DHT22;37879;52.986;6.282;2023-11-21T08:55:21;9.20;99.90
51825;DHT22;37879;52.986;6.282;2023-11-21T08:57:47;9.00;99.90
51825;DHT22;37879;52.986;6.282;2023-11-21T09:00:13;9.00;99.90
51825;DHT22;37879;52.986;6.282;2023-11-21T09:02:42;8.90;99.90
51825;DHT22;37879;52.986;6.282;2023-11-21T09:05:09;8.90;99.90
51825;DHT22;37879;52.986;6.282;2023-11-21T09:07:36;8.10;99.90
51825;DHT22;37879;52.986;6.282;2023-11-21T09:10:05;8.80;99.90
51825;DHT22;37879;52.986;6.282;2023-11-21T09:12:34;8.80;99.90
51825;DHT22;37879;52.986;6.282;2023-11-21T09:15:02;8.70;99.90
51825;DHT22;37879;52.986;6.282;2023-11-21T09:17:28;8.70;99.90
51825;DHT22;37879;52.986;6.282;2023-11-21T09:19:53;8.70;99.90
51825;DHT22;37879;52.986;6.282;2023-11-21T09:22:19;8.70;99.90
51825;DHT22;37879;52.986;6.282;2023-11-21T09:24:45;8.70;99.90
51825;DHT22;37879;52.986;6.282;2023-11-21T09:27:11;8.70;99.90
51825;DHT22;37879;52.986;6.282;2023-11-21T09:29:38;8.60;99.90
51825;DHT22;37879;52.986;6.282;2023-11-21T09:32:05;9.70;99.90
51825;DHT22;37879;52.986;6.282;2023-11-21T09:34:33;8.70;99.90
51825;DHT22;37879;52.986;6.282;2023-11-21T09:37:01;8.70;99.90
51825;DHT22;37879;52.986;6.282;2023-11-21T09:39:31;8.70;99.90
51825;DHT22;37879;52.986;6.282;2023-11-21T09:42:08;8.70;99.90
51825;DHT22;37879;52.986;6.282;2023-11-21T09:44:38;8.80;99.90
51825;DHT22;37879;52.986;6.282;2023-11-21T09:47:10;8.80;99.90
51825;DHT22;37879;52.986;6.282;2023-11-21T09:49:38;8.80;99.90
51825;DHT22;37879;52.986;6.282;2023-11-21T09:52:04;8.80;99.90
51825;DHT22;37879;52.986;6.282;2023-11-21T09:54:34;8.90;99.90
51825;DHT22;37879;52.986;6.282;2023-11-21T09:57:00;8.90;99.90
51825;DHT22;37879;52.986;6.282;2023-11-21T09:59:30;9.80;99.90
51825;DHT22;37879;52.986;6.282;2023-11-21T10:01:57;8.90;99.90
51825;DHT22;37879;52.986;6.282;2023-11-21T10:04:28;9.00;99.90
51825;DHT22;37879;52.986;6.282;2023-11-21T10:06:54;9.00;99.90
51825;DHT22;37879;52.986;6.282;2023-11-21T10:09:21;9.00;99.90
51825;DHT22;37879;52.986;6.282;2023-11-21T10:11:49;9.00;99.90
51825;DHT22;37879;52.986;6.282;2023-11-21T10:14:18;9.00;99.90
51825;DHT22;37879;52.986;6.282;2023-11-21T10:16:45;9.00;99.90
51825;DHT22;37879;52.986;6.282;2023-11-21T10:19:13;9.00;99.90
51825;DHT22;37879;52.986;6.282;2023-11-21T10:21:42;9.00;99.90
51825;DHT22;37879;52.986;6.282;2023-11-21T10:24:08;8.90;99.90
51825;DHT22;37879;52.986;6.282;2023-11-21T10:26:34;8.90;99.90
51825;DHT22;37879;52.986;6.282;2023-11-21T10:29:02;8.80;99.90
51825;DHT22;37879;52.986;6.282;2023-11-21T10:31:31;8.80;99.90
51825;DHT22;37879;52.986;6.282;2023-11-21T10:34:18;8.80;99.90
51825;DHT22;37879;52.986;6.282;2023-11-21T10:36:45;8.80;99.90
51825;DHT22;37879;52.986;6.282;2023-11-21T10:39:18;8.80;99.90
51825;DHT22;37879;52.986;6.282;2023-11-21T10:41:48;8.90;99.90
51825;DHT22;37879;52.986;6.282;2023-11-21T10:44:15;8.90;99.90
51825;DHT22;37879;52.986;6.282;2023-11-21T10:46:49;9.00;99.90
51825;DHT22;37879;52.986;6.282;2023-11-21T10:49:22;9.00;99.90
51825;DHT22;37879;52.986;6.282;2023-11-21T10:51:50;9.10;99.90
51825;DHT22;37879;52.986;6.282;2023-11-21T10:54:22;9.00;99.90
51825;DHT22;37879;52.986;6.282;2023-11-21T10:57:06;9.00;99.90
51825;DHT22;37879;52.986;6.282;2023-11-21T10:59:32;8.90;99.90
51825;DHT22;37879;52.986;6.282;2023-11-21T11:01:58;8.80;99.90
51825;DHT22;37879;52.986;6.282;2023-11-21T11:04:27;8.70;99.90
51825;DHT22;37879;52.986;6.282;2023-11-21T11:07:02;8.70;99.90
51825;DHT22;37879;52.986;6.282;2023-11-21T11:09:28;8.60;99.90
51825;DHT22;37879;52.986;6.282;2023-11-21T11:11:56;8.70;99.90
51825;DHT22;37879;52.986;6.282;2023-11-21T11:14:22;8.70;99.90
51825;DHT22;37879;52.986;6.282;2023-11-21T11:16:53;8.70;99.90
51825;DHT22;37879;52.986;6.282;2023-11-21T11:19:20;8.70;99.90
51825;DHT22;37879;52.986;6.282;2023-11-21T11:24:49;8.70;99.90
51825;DHT22;37879;52.986;6.282;2023-11-21T11:27:57;8.60;99.90
51825;DHT22;37879;52.986;6.282;2023-11-21T11:30:32;8.70;99.90
51825;DHT22;37879;52.986;6.282;2023-11-21T11:38:31;8.50;99.90
51825;DHT22;37879;52.986;6.282;2023-11-21T11:41:04;8.60;99.90
51825;DHT22;37879;52.986;6.282;2023-11-21T11:43:30;8.60;99.90
51825;DHT22;37879;52.986;6.282;2023-11-21T11:45:59;8.50;99.90
51825;DHT22;37879;52.986;6.282;2023-11-21T11:48:25;8.50;99.90
51825;DHT22;37879;52.986;6.282;2023-11-21T11:51:02;8.50;99.90
51825;DHT22;37879;52.986;6.282;2023-11-21T11:53:41;8.40;99.90
51825;DHT22;37879;52.986;6.282;2023-11-21T11:56:33;8.40;99.90
51825;DHT22;37879;52.986;6.282;2023-11-21T11:59:03;8.40;99.90
51825;DHT22;37879;52.986;6.282;2023-11-21T12:01:31;8.40;99.90
51825;DHT22;37879;52.986;6.282;2023-11-21T12:07:02;8.40;99.90
51825;DHT22;37879;52.986;6.282;2023-11-21T12:09:30;8.40;99.90
51825;DHT22;37879;52.986;6.282;2023-11-21T12:11:57;8.40;99.90
51825;DHT22;37879;52.986;6.282;2023-11-21T12:14:23;8.40;99.90
51825;DHT22;37879;52.986;6.282;2023-11-21T12:16:48;8.50;99.90
51825;DHT22;37879;52.986;6.282;2023-11-21T12:19:14;8.50;99.90
51825;DHT22;37879;52.986;6.282;2023-11-21T12:21:40;8.50;99.90
51825;DHT22;37879;52.986;6.282;2023-11-21T12:24:07;8.60;99.90
51825;DHT22;37879;52.986;6.282;2023-11-21T12:26:39;8.60;99.90
51825;DHT22;37879;52.986;6.282;2023-11-21T12:29:05;8.60;99.90
51825;DHT22;37879;52.986;6.282;2023-11-21T12:31:33;8.60;99.90
51825;DHT22;37879;52.986;6.282;2023-11-21T12:34:00;8.50;99.90
51825;DHT22;37879;52.986;6.282;2023-11-21T12:36:26;8.40;99.90
51825;DHT22;37879;52.986;6.282;2023-11-21T12:38:51;8.40;99.90
51825;DHT22;37879;52.986;6.282;2023-11-21T12:41:17;8.40;99.90
51825;DHT22;37879;52.986;6.282;2023-11-21T12:43:43;8.40;99.90
51825;DHT22;37879;52.986;6.282;2023-11-21T12:46:10;8.40;99.90
51825;DHT22;37879;52.986;6.282;2023-11-21T12:48:40;8.50;99.90
51825;DHT22;37879;52.986;6.282;2023-11-21T12:51:10;8.50;99.90
51825;DHT22;37879;52.986;6.282;2023-11-21T12:53:43;8.60;99.90
51825;DHT22;37879;52.986;6.282;2023-11-21T12:56:12;8.60;99.90
51825;DHT22;37879;52.986;6.282;2023-11-21T12:58:39;8.70;99.90
51825;DHT22;37879;52.986;6.282;2023-11-21T13:01:07;8.70;99.90
51825;DHT22;37879;52.986;6.282;2023-11-21T13:03:38;8.80;99.90
51825;DHT22;37879;52.986;6.282;2023-11-21T13:06:06;8.80;99.90
51825;DHT22;37879;52.986;6.282;2023-11-21T13:08:33;8.70;99.90
51825;DHT22;37879;52.986;6.282;2023-11-21T13:11:00;8.80;99.90
51825;DHT22;37879;52.986;6.282;2023-11-21T13:13:28;9.00;99.90
51825;DHT22;37879;52.986;6.282;2023-11-21T13:15:55;8.70;99.90
51825;DHT22;37879;52.986;6.282;2023-11-21T13:18:22;8.70;99.90
51825;DHT22;37879;52.986;6.282;2023-11-21T13:20:49;8.60;99.90
51825;DHT22;37879;52.986;6.282;2023-11-21T13:23:16;8.60;99.90
51825;DHT22;37879;52.986;6.282;2023-11-21T13:25:45;8.60;99.90
51825;DHT22;37879;52.986;6.282;2023-11-21T13:28:12;8.70;99.90
51825;DHT22;37879;52.986;6.282;2023-11-21T13:30:38;8.70;99.90
51825;DHT22;37879;52.986;6.282;2023-11-21T13:33:06;8.70;99.90
51825;DHT22;37879;52.986;6.282;2023-11-21T13:35:34;8.70;99.90
51825;DHT22;37879;52.986;6.282;2023-11-21T13:40:33;8.70;99.90
51825;DHT22;37879;52.986;6.282;2023-11-21T13:43:10;8.70;99.90
51825;DHT22;37879;52.986;6.282;2023-11-21T13:45:40;8.70;99.90
51825;DHT22;37879;52.986;6.282;2023-11-21T13:48:07;8.60;99.90
51825;DHT22;37879;52.986;6.282;2023-11-21T13:50:45;8.50;99.90
51825;DHT22;37879;52.986;6.282;2023-11-21T13:53:21;8.40;99.90
51825;DHT22;37879;52.986;6.282;2023-11-21T13:55:51;8.40;99.90
51825;DHT22;37879;52.986;6.282;2023-11-21T13:58:20;8.40;99.90
51825;DHT22;37879;52.986;6.282;2023-11-21T14:00:54;8.50;99.90
51825;DHT22;37879;52.986;6.282;2023-11-21T14:03:23;8.50;99.90
51825;DHT22;37879;52.986;6.282;2023-11-21T14:05:58;8.50;99.90
51825;DHT22;37879;52.986;6.282;2023-11-21T14:08:26;8.50;99.90
51825;DHT22;37879;52.986;6.282;2023-11-21T14:10:57;8.50;99.90
51825;DHT22;37879;52.986;6.282;2023-11-21T14:13:25;8.50;99.90
51825;DHT22;37879;52.986;6.282;2023-11-21T14:15:51;8.90;99.90
51825;DHT22;37879;52.986;6.282;2023-11-21T14:18:26;8.50;99.90
51825;DHT22;37879;52.986;6.282;2023-11-21T14:21:16;8.50;99.90
51825;DHT22;37879;52.986;6.282;2023-11-21T14:23:42;8.50;99.90
51825;DHT22;37879;52.986;6.282;2023-11-21T14:26:08;8.50;99.90
51825;DHT22;37879;52.986;6.282;2023-11-21T14:28:34;8.50;99.90
51825;DHT22;37879;52.986;6.282;2023-11-21T14:31:02;9.10;99.90
51825;DHT22;37879;52.986;6.282;2023-11-21T14:33:28;8.50;99.90
51825;DHT22;37879;52.986;6.282;2023-11-21T14:35:54;8.50;99.90
51825;DHT22;37879;52.986;6.282;2023-11-21T14:38:20;8.50;99.90
51825;DHT22;37879;52.986;6.282;2023-11-21T14:40:46;8.50;99.90
51825;DHT22;37879;52.986;6.282;2023-11-21T14:43:12;8.50;99.90
51825;DHT22;37879;52.986;6.282;2023-11-21T14:45:38;8.50;99.90
51825;DHT22;37879;52.986;6.282;2023-11-21T14:48:04;8.40;99.90
51825;DHT22;37879;52.986;6.282;2023-11-21T14:50:30;8.40;99.90
51825;DHT22;37879;52.986;6.282;2023-11-21T14:53:15;8.40;99.90
51825;DHT22;37879;52.986;6.282;2023-11-21T14:55:40;8.40;99.90
51825;DHT22;37879;52.986;6.282;2023-11-21T14:58:20;8.70;99.90
51825;DHT22;37879;52.986;6.282;2023-11-21T15:01:01;8.40;99.90
51825;DHT22;37879;52.986;6.282;2023-11-21T15:03:29;8.40;99.90
51825;DHT22;37879;52.986;6.282;2023-11-21T15:06:02;8.30;99.90
51825;DHT22;37879;52.986;6.282;2023-11-21T15:08:57;8.30;99.90
51825;DHT22;37879;52.986;6.282;2023-11-21T15:11:42;8.30;99.90
51825;DHT22;37879;52.986;6.282;2023-11-21T15:14:08;8.30;99.90
51825;DHT22;37879;52.986;6.282;2023-11-21T15:16:38;8.30;99.90
51825;DHT22;37879;52.986;6.282;2023-11-21T15:19:11;8.20;99.90
51825;DHT22;37879;52.986;6.282;2023-11-21T15:21:44;8.20;99.90
51825;DHT22;37879;52.986;6.282;2023-11-21T15:24:11;8.20;99.90
51825;DHT22;37879;52.986;6.282;2023-11-21T15:26:37;8.10;99.90
51825;DHT22;37879;52.986;6.282;2023-11-21T15:29:03;8.10;99.90
51825;DHT22;37879;52.986;6.282;2023-11-21T15:31:29;8.30;99.90
51825;DHT22;37879;52.986;6.282;2023-11-21T15:33:54;8.00;99.90
51825;DHT22;37879;52.986;6.282;2023-11-21T15:36:25;7.90;99.90
51825;DHT22;37879;52.986;6.282;2023-11-21T15:38:52;7.90;99.90
51825;DHT22;37879;52.986;6.282;2023-11-21T15:41:18;7.90;99.90
51825;DHT22;37879;52.986;6.282;2023-11-21T15:43:44;7.90;99.90
51825;DHT22;37879;52.986;6.282;2023-11-21T15:46:10;7.80;99.90
51825;DHT22;37879;52.986;6.282;2023-11-21T15:48:36;7.80;99.90
51825;DHT22;37879;52.986;6.282;2023-11-21T15:51:04;7.80;99.90
51825;DHT22;37879;52.986;6.282;2023-11-21T15:53:30;7.80;99.90
51825;DHT22;37879;52.986;6.282;2023-11-21T15:55:57;7.80;99.90
51825;DHT22;37879;52.986;6.282;2023-11-21T15:58:23;7.80;99.90
51825;DHT22;37879;52.986;6.282;2023-11-21T16:00:51;7.80;99.90